sensor_id;sensor_type;location;lat;lon;timestamp;P1;durP1;ratioP1;P2;durP2;ratioP2
9942;SDS011;5010;45.080;7.634;2023-11-19T00:00:46;16.00;;;8.13;;
9942;SDS011;5010;45.080;7.634;2023-11-19T00:03:13;15.85;;;7.18;;
9942;SDS011;5010;45.080;7.634;2023-11-19T00:05:42;15.30;;;7.65;;
9942;SDS011;5010;45.080;7.634;2023-11-19T00:08:09;16.75;;;9.00;;
9942;SDS011;5010;45.080;7.634;2023-11-19T00:10:36;14.30;;;7.28;;
9942;SDS011;5010;45.080;7.634;2023-11-19T00:13:04;14.65;;;6.60;;
9942;SDS011;5010;45.080;7.634;2023-11-19T00:15:32;17.10;;;8.50;;
9942;SDS011;5010;45.080;7.634;2023-11-19T00:17:59;16.63;;;7.93;;
9942;SDS011;5010;45.080;7.634;2023-11-19T00:20:29;15.85;;;8.55;;
9942;SDS011;5010;45.080;7.634;2023-11-19T00:22:58;15.50;;;7.72;;
9942;SDS011;5010;45.080;7.634;2023-11-19T00:25:27;16.52;;;8.18;;
9942;SDS011;5010;45.080;7.634;2023-11-19T00:27:54;16.25;;;8.05;;
9942;SDS011;5010;45.080;7.634;2023-11-19T00:30:22;15.95;;;7.47;;
9942;SDS011;5010;45.080;7.634;2023-11-19T00:32:49;17.08;;;7.40;;
9942;SDS011;5010;45.080;7.634;2023-11-19T00:35:16;18.65;;;10.02;;
9942;SDS011;5010;45.080;7.634;2023-11-19T00:37:43;16.00;;;8.18;;
9942;SDS011;5010;45.080;7.634;2023-11-19T00:40:14;14.27;;;7.57;;
9942;SDS011;5010;45.080;7.634;2023-11-19T00:42:43;15.80;;;8.30;;
9942;SDS011;5010;45.080;7.634;2023-11-19T00:45:10;15.93;;;7.65;;
9942;SDS011;5010;45.080;7.634;2023-11-19T00:47:37;14.80;;;6.60;;
9942;SDS011;5010;45.080;7.634;2023-11-19T00:50:05;15.02;;;7.53;;
9942;SDS011;5010;45.080;7.634;2023-11-19T00:52:34;15.23;;;7.97;;
9942;SDS011;5010;45.080;7.634;2023-11-19T00:55:02;15.80;;;7.95;;
9942;SDS011;5010;45.080;7.634;2023-11-19T00:57:31;16.02;;;6.63;;
9942;SDS011;5010;45.080;7.634;2023-11-19T00:59:58;16.50;;;9.18;;
9942;SDS011;5010;45.080;7.634;2023-11-19T01:02:25;17.67;;;7.75;;
9942;SDS011;5010;45.080;7.634;2023-11-19T01:04:53;17.00;;;8.13;;
9942;SDS011;5010;45.080;7.634;2023-11-19T01:07:20;17.20;;;8.65;;
9942;SDS011;5010;45.080;7.634;2023-11-19T01:09:49;15.63;;;7.78;;
9942;SDS011;5010;45.080;7.634;2023-11-19T01:12:16;15.02;;;7.07;;
9942;SDS011;5010;45.080;7.634;2023-11-19T01:14:45;15.18;;;7.10;;
9942;SDS011;5010;45.080;7.634;2023-11-19T01:17:12;15.20;;;8.10;;
9942;SDS011;5010;45.080;7.634;2023-11-19T01:19:39;14.80;;;7.97;;
9942;SDS011;5010;45.080;7.634;2023-11-19T01:22:06;15.63;;;8.75;;
9942;SDS011;5010;45.080;7.634;2023-11-19T01:24:34;16.27;;;7.78;;
9942;SDS011;5010;45.080;7.634;2023-11-19T01:27:01;16.45;;;7.93;;
9942;SDS011;5010;45.080;7.634;2023-11-19T01:29:28;15.52;;;8.00;;
9942;SDS011;5010;45.080;7.634;2023-11-19T01:31:57;15.10;;;7.75;;
9942;SDS011;5010;45.080;7.634;2023-11-19T01:34:24;15.95;;;7.93;;
9942;SDS011;5010;45.080;7.634;2023-11-19T01:36:51;15.65;;;7.28;;
9942;SDS011;5010;45.080;7.634;2023-11-19T01:39:18;15.27;;;8.65;;
9942;SDS011;5010;45.080;7.634;2023-11-19T01:41:46;16.63;;;8.25;;
9942;SDS011;5010;45.080;7.634;2023-11-19T01:44:13;16.13;;;8.73;;
9942;SDS011;5010;45.080;7.634;2023-11-19T01:46:41;14.18;;;6.93;;
9942;SDS011;5010;45.080;7.634;2023-11-19T01:49:10;15.48;;;6.95;;
9942;SDS011;5010;45.080;7.634;2023-11-19T01:51:38;16.23;;;7.47;;
9942;SDS011;5010;45.080;7.634;2023-11-19T01:54:06;16.95;;;7.55;;
9942;SDS011;5010;45.080;7.634;2023-11-19T01:56:34;16.40;;;7.97;;
9942;SDS011;5010;45.080;7.634;2023-11-19T01:59:02;18.23;;;7.70;;
9942;SDS011;5010;45.080;7.634;2023-11-19T02:01:29;16.05;;;8.77;;
9942;SDS011;5010;45.080;7.634;2023-11-19T02:03:57;16.52;;;7.72;;
9942;SDS011;5010;45.080;7.634;2023-11-19T02:06:26;14.95;;;6.85;;
9942;SDS011;5010;45.080;7.634;2023-11-19T02:08:54;14.73;;;7.78;;
9942;SDS011;5010;45.080;7.634;2023-11-19T02:11:21;13.95;;;8.15;;
9942;SDS011;5010;45.080;7.634;2023-11-19T02:13:49;14.23;;;6.32;;
9942;SDS011;5010;45.080;7.634;2023-11-19T02:16:16;15.27;;;7.68;;
9942;SDS011;5010;45.080;7.634;2023-11-19T02:18:43;16.83;;;7.13;;
9942;SDS011;5010;45.080;7.634;2023-11-19T02:21:10;16.10;;;7.30;;
9942;SDS011;5010;45.080;7.634;2023-11-19T02:23:41;16.48;;;8.70;;
9942;SDS011;5010;45.080;7.634;2023-11-19T02:26:12;16.25;;;7.93;;
9942;SDS011;5010;45.080;7.634;2023-11-19T02:28:41;14.77;;;9.55;;
9942;SDS011;5010;45.080;7.634;2023-11-19T02:31:09;14.90;;;7.72;;
9942;SDS011;5010;45.080;7.634;2023-11-19T02:33:36;17.08;;;8.43;;
9942;SDS011;5010;45.080;7.634;2023-11-19T02:36:04;15.05;;;7.22;;
9942;SDS011;5010;45.080;7.634;2023-11-19T02:38:32;17.65;;;6.00;;
9942;SDS011;5010;45.080;7.634;2023-11-19T02:40:59;16.00;;;7.38;;
9942;SDS011;5010;45.080;7.634;2023-11-19T02:43:30;16.40;;;7.70;;
9942;SDS011;5010;45.080;7.634;2023-11-19T02:45:59;15.07;;;6.90;;
9942;SDS011;5010;45.080;7.634;2023-11-19T02:48:26;17.85;;;7.00;;
9942;SDS011;5010;45.080;7.634;2023-11-19T02:50:54;15.90;;;7.70;;
9942;SDS011;5010;45.080;7.634;2023-11-19T02:53:23;17.42;;;6.43;;
9942;SDS011;5010;45.080;7.634;2023-11-19T02:55:52;14.80;;;7.68;;
9942;SDS011;5010;45.080;7.634;2023-11-19T02:58:26;14.45;;;6.55;;
9942;SDS011;5010;45.080;7.634;2023-11-19T03:00:53;16.98;;;7.20;;
9942;SDS011;5010;45.080;7.634;2023-11-19T03:03:25;14.38;;;6.53;;
9942;SDS011;5010;45.080;7.634;2023-11-19T03:05:56;14.98;;;7.13;;
9942;SDS011;5010;45.080;7.634;2023-11-19T03:08:23;16.75;;;7.78;;
9942;SDS011;5010;45.080;7.634;2023-11-19T03:10:50;15.07;;;8.20;;
9942;SDS011;5010;45.080;7.634;2023-11-19T03:13:18;17.00;;;7.03;;
9942;SDS011;5010;45.080;7.634;2023-11-19T03:15:45;15.18;;;7.30;;
9942;SDS011;5010;45.080;7.634;2023-11-19T03:18:12;15.30;;;7.20;;
9942;SDS011;5010;45.080;7.634;2023-11-19T03:20:41;15.15;;;6.40;;
9942;SDS011;5010;45.080;7.634;2023-11-19T03:23:08;16.02;;;7.03;;
9942;SDS011;5010;45.080;7.634;2023-11-19T03:25:35;15.05;;;6.78;;
9942;SDS011;5010;45.080;7.634;2023-11-19T03:28:02;15.45;;;6.93;;
9942;SDS011;5010;45.080;7.634;2023-11-19T03:30:31;14.85;;;6.25;;
9942;SDS011;5010;45.080;7.634;2023-11-19T03:32:58;15.23;;;7.53;;
9942;SDS011;5010;45.080;7.634;2023-11-19T03:35:26;15.05;;;7.15;;
9942;SDS011;5010;45.080;7.634;2023-11-19T03:37:55;16.27;;;8.45;;
9942;SDS011;5010;45.080;7.634;2023-11-19T03:40:22;14.80;;;6.70;;
9942;SDS011;5010;45.080;7.634;2023-11-19T03:42:50;17.63;;;7.43;;
9942;SDS011;5010;45.080;7.634;2023-11-19T03:45:17;14.63;;;7.57;;
9942;SDS011;5010;45.080;7.634;2023-11-19T03:47:44;14.55;;;6.68;;
9942;SDS011;5010;45.080;7.634;2023-11-19T03:50:11;13.80;;;7.05;;
9942;SDS011;5010;45.080;7.634;2023-11-19T03:52:40;14.05;;;7.00;;
9942;SDS011;5010;45.080;7.634;2023-11-19T03:55:09;16.08;;;7.03;;
9942;SDS011;5010;45.080;7.634;2023-11-19T03:57:37;16.42;;;7.07;;
9942;SDS011;5010;45.080;7.634;2023-11-19T04:00:05;15.85;;;7.32;;
9942;SDS011;5010;45.080;7.634;2023-11-19T04:02:34;16.83;;;8.27;;
9942;SDS011;5010;45.080;7.634;2023-11-19T04:05:01;14.43;;;6.72;;
9942;SDS011;5010;45.080;7.634;2023-11-19T04:07:29;15.05;;;7.57;;
9942;SDS011;5010;45.080;7.634;2023-11-19T04:09:56;14.98;;;8.88;;
9942;SDS011;5010;45.080;7.634;2023-11-19T04:12:25;16.63;;;6.30;;
9942;SDS011;5010;45.080;7.634;2023-11-19T04:14:52;14.57;;;6.75;;
9942;SDS011;5010;45.080;7.634;2023-11-19T04:17:19;16.75;;;9.43;;
9942;SDS011;5010;45.080;7.634;2023-11-19T04:19:46;15.40;;;6.85;;
9942;SDS011;5010;45.080;7.634;2023-11-19T04:22:14;17.05;;;7.13;;
9942;SDS011;5010;45.080;7.634;2023-11-19T04:24:41;15.15;;;8.18;;
9942;SDS011;5010;45.080;7.634;2023-11-19T04:27:09;13.82;;;7.82;;
9942;SDS011;5010;45.080;7.634;2023-11-19T04:29:37;13.75;;;6.35;;
9942;SDS011;5010;45.080;7.634;2023-11-19T04:32:05;14.73;;;8.00;;
9942;SDS011;5010;45.080;7.634;2023-11-19T04:34:32;14.85;;;7.00;;
9942;SDS011;5010;45.080;7.634;2023-11-19T04:37:00;13.68;;;7.15;;
9942;SDS011;5010;45.080;7.634;2023-11-19T04:39:28;14.70;;;7.50;;
9942;SDS011;5010;45.080;7.634;2023-11-19T04:41:55;16.98;;;9.35;;
9942;SDS011;5010;45.080;7.634;2023-11-19T04:44:23;15.25;;;7.82;;
9942;SDS011;5010;45.080;7.634;2023-11-19T04:46:51;15.50;;;8.35;;
9942;SDS011;5010;45.080;7.634;2023-11-19T04:49:18;16.27;;;7.93;;
9942;SDS011;5010;45.080;7.634;2023-11-19T04:51:46;15.82;;;8.10;;
9942;SDS011;5010;45.080;7.634;2023-11-19T04:54:13;14.75;;;7.93;;
9942;SDS011;5010;45.080;7.634;2023-11-19T04:56:40;15.52;;;7.30;;
9942;SDS011;5010;45.080;7.634;2023-11-19T04:59:07;14.85;;;6.43;;
9942;SDS011;5010;45.080;7.634;2023-11-19T05:01:34;15.30;;;8.30;;
9942;SDS011;5010;45.080;7.634;2023-11-19T05:04:03;14.90;;;6.93;;
9942;SDS011;5010;45.080;7.634;2023-11-19T05:06:31;17.17;;;9.18;;
9942;SDS011;5010;45.080;7.634;2023-11-19T05:09:00;15.63;;;7.85;;
9942;SDS011;5010;45.080;7.634;2023-11-19T05:11:29;15.35;;;7.60;;
9942;SDS011;5010;45.080;7.634;2023-11-19T05:13:57;25.33;;;8.63;;
9942;SDS011;5010;45.080;7.634;2023-11-19T05:16:24;16.60;;;8.80;;
9942;SDS011;5010;45.080;7.634;2023-11-19T05:18:51;14.93;;;6.82;;
9942;SDS011;5010;45.080;7.634;2023-11-19T05:21:22;15.15;;;7.35;;
9942;SDS011;5010;45.080;7.634;2023-11-19T05:23:50;15.95;;;6.95;;
9942;SDS011;5010;45.080;7.634;2023-11-19T05:26:17;15.52;;;9.02;;
9942;SDS011;5010;45.080;7.634;2023-11-19T05:28:45;16.38;;;10.35;;
9942;SDS011;5010;45.080;7.634;2023-11-19T05:31:12;15.77;;;8.27;;
9942;SDS011;5010;45.080;7.634;2023-11-19T05:33:40;15.68;;;7.13;;
9942;SDS011;5010;45.080;7.634;2023-11-19T05:36:07;17.20;;;8.18;;
9942;SDS011;5010;45.080;7.634;2023-11-19T05:38:36;13.93;;;6.60;;
9942;SDS011;5010;45.080;7.634;2023-11-19T05:41:03;16.30;;;5.97;;
9942;SDS011;5010;45.080;7.634;2023-11-19T05:43:31;15.63;;;7.60;;
9942;SDS011;5010;45.080;7.634;2023-11-19T05:45:58;15.77;;;7.45;;
9942;SDS011;5010;45.080;7.634;2023-11-19T05:48:26;17.42;;;8.27;;
9942;SDS011;5010;45.080;7.634;2023-11-19T05:50:53;20.27;;;7.93;;
9942;SDS011;5010;45.080;7.634;2023-11-19T05:53:21;14.77;;;7.03;;
9942;SDS011;5010;45.080;7.634;2023-11-19T05:55:49;19.40;;;8.35;;
9942;SDS011;5010;45.080;7.634;2023-11-19T05:58:22;14.00;;;6.60;;
9942;SDS011;5010;45.080;7.634;2023-11-19T06:00:51;14.48;;;6.90;;
9942;SDS011;5010;45.080;7.634;2023-11-19T06:03:18;15.75;;;6.85;;
9942;SDS011;5010;45.080;7.634;2023-11-19T06:05:46;17.23;;;7.47;;
9942;SDS011;5010;45.080;7.634;2023-11-19T06:08:13;15.15;;;7.88;;
9942;SDS011;5010;45.080;7.634;2023-11-19T06:10:41;18.75;;;8.38;;
9942;SDS011;5010;45.080;7.634;2023-11-19T06:13:10;16.67;;;7.57;;
9942;SDS011;5010;45.080;7.634;2023-11-19T06:15:37;16.25;;;7.13;;
9942;SDS011;5010;45.080;7.634;2023-11-19T06:18:04;16.60;;;7.65;;
9942;SDS011;5010;45.080;7.634;2023-11-19T06:20:32;17.10;;;6.90;;
9942;SDS011;5010;45.080;7.634;2023-11-19T06:22:59;15.40;;;8.32;;
9942;SDS011;5010;45.080;7.634;2023-11-19T06:25:26;16.48;;;7.80;;
9942;SDS011;5010;45.080;7.634;2023-11-19T06:27:54;14.57;;;7.75;;
9942;SDS011;5010;45.080;7.634;2023-11-19T06:30:23;14.40;;;7.55;;
9942;SDS011;5010;45.080;7.634;2023-11-19T06:32:53;15.88;;;7.13;;
9942;SDS011;5010;45.080;7.634;2023-11-19T06:35:20;13.80;;;6.60;;
9942;SDS011;5010;45.080;7.634;2023-11-19T06:37:47;14.15;;;6.93;;
9942;SDS011;5010;45.080;7.634;2023-11-19T06:40:15;16.67;;;6.65;;
9942;SDS011;5010;45.080;7.634;2023-11-19T06:42:42;15.15;;;7.00;;
9942;SDS011;5010;45.080;7.634;2023-11-19T06:45:09;14.57;;;6.70;;
9942;SDS011;5010;45.080;7.634;2023-11-19T06:47:38;17.02;;;7.68;;
9942;SDS011;5010;45.080;7.634;2023-11-19T06:50:06;14.77;;;7.45;;
9942;SDS011;5010;45.080;7.634;2023-11-19T06:52:34;14.45;;;6.38;;
9942;SDS011;5010;45.080;7.634;2023-11-19T06:55:02;13.95;;;6.30;;
9942;SDS011;5010;45.080;7.634;2023-11-19T06:57:29;14.48;;;6.53;;
9942;SDS011;5010;45.080;7.634;2023-11-19T06:59:57;20.13;;;6.50;;
9942;SDS011;5010;45.080;7.634;2023-11-19T07:02:24;15.73;;;6.90;;
9942;SDS011;5010;45.080;7.634;2023-11-19T07:04:53;17.15;;;6.60;;
9942;SDS011;5010;45.080;7.634;2023-11-19T07:07:20;14.30;;;6.43;;
9942;SDS011;5010;45.080;7.634;2023-11-19T07:09:48;14.48;;;7.50;;
9942;SDS011;5010;45.080;7.634;2023-11-19T07:12:15;13.95;;;6.65;;
9942;SDS011;5010;45.080;7.634;2023-11-19T07:14:42;14.10;;;6.65;;
9942;SDS011;5010;45.080;7.634;2023-11-19T07:17:09;13.93;;;6.75;;
9942;SDS011;5010;45.080;7.634;2023-11-19T07:19:36;13.65;;;6.53;;
9942;SDS011;5010;45.080;7.634;2023-11-19T07:22:05;14.25;;;5.50;;
9942;SDS011;5010;45.080;7.634;2023-11-19T07:24:33;14.63;;;6.38;;
9942;SDS011;5010;45.080;7.634;2023-11-19T07:27:00;14.60;;;6.30;;
9942;SDS011;5010;45.080;7.634;2023-11-19T07:29:29;15.00;;;6.00;;
9942;SDS011;5010;45.080;7.634;2023-11-19T07:31:56;16.10;;;6.63;;
9942;SDS011;5010;45.080;7.634;2023-11-19T07:34:24;13.98;;;5.80;;
9942;SDS011;5010;45.080;7.634;2023-11-19T07:36:51;15.27;;;6.60;;
9942;SDS011;5010;45.080;7.634;2023-11-19T07:39:20;15.20;;;6.60;;
9942;SDS011;5010;45.080;7.634;2023-11-19T07:41:47;16.17;;;6.75;;
9942;SDS011;5010;45.080;7.634;2023-11-19T07:44:14;14.02;;;6.18;;
9942;SDS011;5010;45.080;7.634;2023-11-19T07:46:42;16.25;;;6.53;;
9942;SDS011;5010;45.080;7.634;2023-11-19T07:49:10;14.45;;;6.30;;
9942;SDS011;5010;45.080;7.634;2023-11-19T07:51:37;15.75;;;5.85;;
9942;SDS011;5010;45.080;7.634;2023-11-19T07:54:04;15.00;;;5.85;;
9942;SDS011;5010;45.080;7.634;2023-11-19T07:56:34;14.43;;;6.07;;
9942;SDS011;5010;45.080;7.634;2023-11-19T07:59:01;15.60;;;6.57;;
9942;SDS011;5010;45.080;7.634;2023-11-19T08:01:28;18.50;;;6.90;;
9942;SDS011;5010;45.080;7.634;2023-11-19T08:03:56;12.55;;;4.65;;
9942;SDS011;5010;45.080;7.634;2023-11-19T08:06:23;14.20;;;4.72;;
9942;SDS011;5010;45.080;7.634;2023-11-19T08:08:50;16.23;;;6.25;;
9942;SDS011;5010;45.080;7.634;2023-11-19T08:11:18;15.90;;;6.47;;
9942;SDS011;5010;45.080;7.634;2023-11-19T08:13:47;13.65;;;6.50;;
9942;SDS011;5010;45.080;7.634;2023-11-19T08:16:14;16.85;;;6.72;;
9942;SDS011;5010;45.080;7.634;2023-11-19T08:18:41;14.13;;;5.93;;
9942;SDS011;5010;45.080;7.634;2023-11-19T08:21:09;14.95;;;6.32;;
9942;SDS011;5010;45.080;7.634;2023-11-19T08:23:40;14.05;;;6.82;;
9942;SDS011;5010;45.080;7.634;2023-11-19T08:26:07;14.80;;;7.30;;
9942;SDS011;5010;45.080;7.634;2023-11-19T08:28:34;16.30;;;7.30;;
9942;SDS011;5010;45.080;7.634;2023-11-19T08:31:06;17.38;;;7.10;;
9942;SDS011;5010;45.080;7.634;2023-11-19T08:33:33;17.48;;;6.05;;
9942;SDS011;5010;45.080;7.634;2023-11-19T08:36:01;16.50;;;7.72;;
9942;SDS011;5010;45.080;7.634;2023-11-19T08:38:30;14.65;;;6.65;;
9942;SDS011;5010;45.080;7.634;2023-11-19T08:41:00;15.52;;;6.63;;
9942;SDS011;5010;45.080;7.634;2023-11-19T08:43:28;12.52;;;5.43;;
9942;SDS011;5010;45.080;7.634;2023-11-19T08:45:56;13.73;;;5.65;;
9942;SDS011;5010;45.080;7.634;2023-11-19T08:48:25;15.60;;;6.13;;
9942;SDS011;5010;45.080;7.634;2023-11-19T08:50:52;12.35;;;5.30;;
9942;SDS011;5010;45.080;7.634;2023-11-19T08:53:19;18.02;;;6.45;;
9942;SDS011;5010;45.080;7.634;2023-11-19T08:55:47;15.77;;;6.35;;
9942;SDS011;5010;45.080;7.634;2023-11-19T08:58:14;15.45;;;6.72;;
9942;SDS011;5010;45.080;7.634;2023-11-19T09:00:43;16.65;;;5.75;;
9942;SDS011;5010;45.080;7.634;2023-11-19T09:03:10;16.83;;;7.13;;
9942;SDS011;5010;45.080;7.634;2023-11-19T09:05:38;15.90;;;6.30;;
9942;SDS011;5010;45.080;7.634;2023-11-19T09:08:06;14.73;;;5.70;;
9942;SDS011;5010;45.080;7.634;2023-11-19T09:10:33;16.85;;;6.25;;
9942;SDS011;5010;45.080;7.634;2023-11-19T09:13:00;14.43;;;6.50;;
9942;SDS011;5010;45.080;7.634;2023-11-19T09:15:28;13.00;;;5.70;;
9942;SDS011;5010;45.080;7.634;2023-11-19T09:17:56;13.70;;;6.25;;
9942;SDS011;5010;45.080;7.634;2023-11-19T09:20:24;13.90;;;6.18;;
9942;SDS011;5010;45.080;7.634;2023-11-19T09:22:52;13.60;;;5.60;;
9942;SDS011;5010;45.080;7.634;2023-11-19T09:25:20;12.60;;;4.40;;
9942;SDS011;5010;45.080;7.634;2023-11-19T09:27:47;15.57;;;6.40;;
9942;SDS011;5010;45.080;7.634;2023-11-19T09:30:15;15.88;;;7.35;;
9942;SDS011;5010;45.080;7.634;2023-11-19T09:32:42;14.90;;;5.95;;
9942;SDS011;5010;45.080;7.634;2023-11-19T09:35:09;13.13;;;5.28;;
9942;SDS011;5010;45.080;7.634;2023-11-19T09:37:38;12.80;;;5.30;;
9942;SDS011;5010;45.080;7.634;2023-11-19T09:40:07;16.00;;;5.60;;
9942;SDS011;5010;45.080;7.634;2023-11-19T09:42:39;15.93;;;5.30;;
9942;SDS011;5010;45.080;7.634;2023-11-19T09:45:10;14.25;;;4.95;;
9942;SDS011;5010;45.080;7.634;2023-11-19T09:47:39;14.18;;;5.47;;
9942;SDS011;5010;45.080;7.634;2023-11-19T09:50:07;13.32;;;5.05;;
9942;SDS011;5010;45.080;7.634;2023-11-19T09:52:34;18.05;;;4.93;;
9942;SDS011;5010;45.080;7.634;2023-11-19T09:55:01;16.23;;;6.03;;
9942;SDS011;5010;45.080;7.634;2023-11-19T09:57:30;13.18;;;5.40;;
9942;SDS011;5010;45.080;7.634;2023-11-19T09:59:57;13.00;;;5.07;;
9942;SDS011;5010;45.080;7.634;2023-11-19T10:02:25;13.77;;;6.13;;
9942;SDS011;5010;45.080;7.634;2023-11-19T10:04:54;14.57;;;5.50;;
9942;SDS011;5010;45.080;7.634;2023-11-19T10:07:21;12.57;;;5.45;;
9942;SDS011;5010;45.080;7.634;2023-11-19T10:09:48;14.98;;;5.15;;
9942;SDS011;5010;45.080;7.634;2023-11-19T10:12:16;16.75;;;5.82;;
9942;SDS011;5010;45.080;7.634;2023-11-19T10:14:46;13.45;;;5.50;;
9942;SDS011;5010;45.080;7.634;2023-11-19T10:17:16;16.60;;;6.45;;
9942;SDS011;5010;45.080;7.634;2023-11-19T10:19:43;13.35;;;5.18;;
9942;SDS011;5010;45.080;7.634;2023-11-19T10:22:10;15.07;;;6.30;;
9942;SDS011;5010;45.080;7.634;2023-11-19T10:24:40;14.50;;;5.78;;
9942;SDS011;5010;45.080;7.634;2023-11-19T10:27:07;16.50;;;6.10;;
9942;SDS011;5010;45.080;7.634;2023-11-19T10:29:35;13.50;;;5.50;;
9942;SDS011;5010;45.080;7.634;2023-11-19T10:32:07;15.52;;;7.05;;
9942;SDS011;5010;45.080;7.634;2023-11-19T10:34:34;13.10;;;5.28;;
9942;SDS011;5010;45.080;7.634;2023-11-19T10:37:04;17.00;;;5.10;;
9942;SDS011;5010;45.080;7.634;2023-11-19T10:39:37;16.30;;;5.32;;
9942;SDS011;5010;45.080;7.634;2023-11-19T10:42:19;12.98;;;5.40;;
9942;SDS011;5010;45.080;7.634;2023-11-19T10:44:46;13.52;;;5.25;;
9942;SDS011;5010;45.080;7.634;2023-11-19T10:47:15;13.90;;;5.22;;
9942;SDS011;5010;45.080;7.634;2023-11-19T10:49:45;14.45;;;5.00;;
9942;SDS011;5010;45.080;7.634;2023-11-19T10:52:13;14.75;;;5.68;;
9942;SDS011;5010;45.080;7.634;2023-11-19T10:54:44;13.20;;;5.20;;
9942;SDS011;5010;45.080;7.634;2023-11-19T10:57:16;13.20;;;5.05;;
9942;SDS011;5010;45.080;7.634;2023-11-19T10:59:46;14.25;;;4.65;;
9942;SDS011;5010;45.080;7.634;2023-11-19T11:02:16;15.68;;;6.03;;
9942;SDS011;5010;45.080;7.634;2023-11-19T11:04:45;13.45;;;4.93;;
9942;SDS011;5010;45.080;7.634;2023-11-19T11:07:14;13.82;;;5.90;;
9942;SDS011;5010;45.080;7.634;2023-11-19T11:09:42;15.40;;;5.75;;
9942;SDS011;5010;45.080;7.634;2023-11-19T11:12:14;14.10;;;5.75;;
9942;SDS011;5010;45.080;7.634;2023-11-19T11:14:42;12.90;;;5.07;;
9942;SDS011;5010;45.080;7.634;2023-11-19T11:17:11;14.27;;;6.10;;
9942;SDS011;5010;45.080;7.634;2023-11-19T11:19:40;14.57;;;5.75;;
9942;SDS011;5010;45.080;7.634;2023-11-19T11:22:09;14.13;;;5.00;;
9942;SDS011;5010;45.080;7.634;2023-11-19T11:24:45;12.68;;;5.70;;
9942;SDS011;5010;45.080;7.634;2023-11-19T11:27:29;14.07;;;5.40;;
9942;SDS011;5010;45.080;7.634;2023-11-19T11:29:59;12.55;;;5.10;;
9942;SDS011;5010;45.080;7.634;2023-11-19T11:32:30;13.77;;;6.22;;
9942;SDS011;5010;45.080;7.634;2023-11-19T11:35:15;13.65;;;4.45;;
9942;SDS011;5010;45.080;7.634;2023-11-19T11:37:45;11.70;;;4.47;;
9942;SDS011;5010;45.080;7.634;2023-11-19T11:40:14;12.00;;;5.22;;
9942;SDS011;5010;45.080;7.634;2023-11-19T11:42:41;13.55;;;5.75;;
9942;SDS011;5010;45.080;7.634;2023-11-19T11:45:09;13.07;;;4.38;;
9942;SDS011;5010;45.080;7.634;2023-11-19T11:50:24;13.25;;;5.07;;
9942;SDS011;5010;45.080;7.634;2023-11-19T11:55:51;12.60;;;4.07;;
9942;SDS011;5010;45.080;7.634;2023-11-19T11:58:20;15.70;;;5.70;;
9942;SDS011;5010;45.080;7.634;2023-11-19T12:00:47;13.32;;;5.30;;
9942;SDS011;5010;45.080;7.634;2023-11-19T12:03:16;12.88;;;4.20;;
9942;SDS011;5010;45.080;7.634;2023-11-19T12:05:48;13.25;;;5.00;;
9942;SDS011;5010;45.080;7.634;2023-11-19T12:08:18;16.02;;;4.20;;
9942;SDS011;5010;45.080;7.634;2023-11-19T12:10:46;13.57;;;5.07;;
9942;SDS011;5010;45.080;7.634;2023-11-19T12:13:14;17.70;;;5.28;;
9942;SDS011;5010;45.080;7.634;2023-11-19T12:18:28;13.45;;;4.80;;
9942;SDS011;5010;45.080;7.634;2023-11-19T12:20:58;13.68;;;5.18;;
9942;SDS011;5010;45.080;7.634;2023-11-19T12:23:27;13.15;;;5.90;;
9942;SDS011;5010;45.080;7.634;2023-11-19T12:25:55;12.50;;;4.65;;
9942;SDS011;5010;45.080;7.634;2023-11-19T12:28:23;13.25;;;5.07;;
9942;SDS011;5010;45.080;7.634;2023-11-19T12:30:52;12.85;;;5.40;;
9942;SDS011;5010;45.080;7.634;2023-11-19T12:33:21;13.60;;;5.35;;
9942;SDS011;5010;45.080;7.634;2023-11-19T12:35:49;12.65;;;4.75;;
9942;SDS011;5010;45.080;7.634;2023-11-19T12:38:20;12.77;;;4.22;;
9942;SDS011;5010;45.080;7.634;2023-11-19T12:40:49;12.85;;;5.38;;
9942;SDS011;5010;45.080;7.634;2023-11-19T12:43:29;13.55;;;5.95;;
9942;SDS011;5010;45.080;7.634;2023-11-19T12:45:56;13.18;;;4.80;;
9942;SDS011;5010;45.080;7.634;2023-11-19T12:48:23;11.93;;;4.70;;
9942;SDS011;5010;45.080;7.634;2023-11-19T12:50:51;13.43;;;4.95;;
9942;SDS011;5010;45.080;7.634;2023-11-19T12:53:20;13.02;;;5.47;;
9942;SDS011;5010;45.080;7.634;2023-11-19T12:55:47;12.60;;;4.97;;
9942;SDS011;5010;45.080;7.634;2023-11-19T12:58:30;13.70;;;5.75;;
9942;SDS011;5010;45.080;7.634;2023-11-19T13:01:00;12.07;;;5.20;;
9942;SDS011;5010;45.080;7.634;2023-11-19T13:03:31;13.20;;;4.75;;
9942;SDS011;5010;45.080;7.634;2023-11-19T13:06:02;12.63;;;4.97;;
9942;SDS011;5010;45.080;7.634;2023-11-19T13:08:36;12.50;;;4.35;;
9942;SDS011;5010;45.080;7.634;2023-11-19T13:11:04;12.65;;;5.30;;
9942;SDS011;5010;45.080;7.634;2023-11-19T13:13:32;12.05;;;4.50;;
9942;SDS011;5010;45.080;7.634;2023-11-19T13:16:04;12.10;;;4.35;;
9942;SDS011;5010;45.080;7.634;2023-11-19T13:18:31;13.70;;;5.20;;
9942;SDS011;5010;45.080;7.634;2023-11-19T13:20:59;12.15;;;5.03;;
9942;SDS011;5010;45.080;7.634;2023-11-19T13:23:26;12.35;;;4.55;;
9942;SDS011;5010;45.080;7.634;2023-11-19T13:25:55;13.25;;;5.18;;
9942;SDS011;5010;45.080;7.634;2023-11-19T13:28:22;12.52;;;4.57;;
9942;SDS011;5010;45.080;7.634;2023-11-19T13:30:51;12.65;;;4.82;;
9942;SDS011;5010;45.080;7.634;2023-11-19T13:33:18;13.32;;;5.10;;
9942;SDS011;5010;45.080;7.634;2023-11-19T13:35:46;12.07;;;5.32;;
9942;SDS011;5010;45.080;7.634;2023-11-19T13:38:13;12.00;;;4.25;;
9942;SDS011;5010;45.080;7.634;2023-11-19T13:40:40;13.55;;;5.15;;
9942;SDS011;5010;45.080;7.634;2023-11-19T13:43:09;14.98;;;5.18;;
9942;SDS011;5010;45.080;7.634;2023-11-19T13:45:36;12.13;;;5.28;;
9942;SDS011;5010;45.080;7.634;2023-11-19T13:48:04;12.40;;;4.38;;
9942;SDS011;5010;45.080;7.634;2023-11-19T13:50:34;11.90;;;4.03;;
9942;SDS011;5010;45.080;7.634;2023-11-19T13:53:01;12.68;;;3.60;;
9942;SDS011;5010;45.080;7.634;2023-11-19T13:55:29;11.73;;;4.45;;
9942;SDS011;5010;45.080;7.634;2023-11-19T13:57:57;13.23;;;4.32;;
9942;SDS011;5010;45.080;7.634;2023-11-19T14:00:26;13.07;;;5.00;;
9942;SDS011;5010;45.080;7.634;2023-11-19T14:02:53;12.38;;;4.18;;
9942;SDS011;5010;45.080;7.634;2023-11-19T14:05:20;12.32;;;5.00;;
9942;SDS011;5010;45.080;7.634;2023-11-19T14:07:48;13.15;;;5.03;;
9942;SDS011;5010;45.080;7.634;2023-11-19T14:10:16;12.10;;;4.45;;
9942;SDS011;5010;45.080;7.634;2023-11-19T14:12:43;11.70;;;4.32;;
9942;SDS011;5010;45.080;7.634;2023-11-19T14:15:11;12.73;;;4.43;;
9942;SDS011;5010;45.080;7.634;2023-11-19T14:17:40;15.00;;;4.95;;
9942;SDS011;5010;45.080;7.634;2023-11-19T14:20:07;11.80;;;3.67;;
9942;SDS011;5010;45.080;7.634;2023-11-19T14:22:38;13.00;;;4.97;;
9942;SDS011;5010;45.080;7.634;2023-11-19T14:25:05;11.85;;;3.72;;
9942;SDS011;5010;45.080;7.634;2023-11-19T14:27:35;12.70;;;3.97;;
9942;SDS011;5010;45.080;7.634;2023-11-19T14:30:03;13.00;;;4.25;;
9942;SDS011;5010;45.080;7.634;2023-11-19T14:32:30;12.60;;;4.57;;
9942;SDS011;5010;45.080;7.634;2023-11-19T14:34:59;12.13;;;4.32;;
9942;SDS011;5010;45.080;7.634;2023-11-19T14:37:26;11.68;;;3.97;;
9942;SDS011;5010;45.080;7.634;2023-11-19T14:39:53;11.68;;;4.20;;
9942;SDS011;5010;45.080;7.634;2023-11-19T14:42:21;12.52;;;4.78;;
9942;SDS011;5010;45.080;7.634;2023-11-19T14:44:48;13.10;;;4.50;;
9942;SDS011;5010;45.080;7.634;2023-11-19T14:47:15;14.90;;;4.72;;
9942;SDS011;5010;45.080;7.634;2023-11-19T14:49:42;14.05;;;4.85;;
9942;SDS011;5010;45.080;7.634;2023-11-19T14:52:11;12.25;;;5.15;;
9942;SDS011;5010;45.080;7.634;2023-11-19T14:54:38;13.23;;;5.20;;
9942;SDS011;5010;45.080;7.634;2023-11-19T14:57:05;11.55;;;4.18;;
9942;SDS011;5010;45.080;7.634;2023-11-19T14:59:33;11.90;;;4.22;;
9942;SDS011;5010;45.080;7.634;2023-11-19T15:02:00;12.02;;;4.65;;
9942;SDS011;5010;45.080;7.634;2023-11-19T15:04:27;12.00;;;3.70;;
9942;SDS011;5010;45.080;7.634;2023-11-19T15:06:56;11.57;;;4.20;;
9942;SDS011;5010;45.080;7.634;2023-11-19T15:09:25;13.43;;;4.30;;
9942;SDS011;5010;45.080;7.634;2023-11-19T15:11:53;12.43;;;3.92;;
9942;SDS011;5010;45.080;7.634;2023-11-19T15:14:20;11.95;;;4.38;;